createdAt,value
2023-05-04T00:01:49.567Z,16.40
2023-05-04T00:03:51.583Z,19.92
2023-05-04T00:05:53.260Z,17.65
2023-05-04T00:07:54.910Z,18.08
2023-05-04T00:09:56.505Z,18.08
2023-05-04T00:11:58.054Z,18.40
2023-05-04T00:13:59.736Z,20.38
2023-05-04T00:16:01.587Z,19.17
2023-05-04T00:18:03.253Z,18.13
2023-05-04T00:20:05.591Z,18.95
2023-05-04T00:22:07.931Z,17.20
2023-05-04T00:24:09.520Z,16.48
2023-05-04T00:26:11.204Z,18.88
2023-05-04T00:28:12.962Z,19.90
2023-05-04T00:30:15.329Z,17.90
2023-05-04T00:32:16.942Z,18.85
2023-05-04T00:34:18.655Z,17.80
2023-05-04T00:36:20.244Z,23.60
2023-05-04T00:38:21.838Z,18.25
2023-05-04T00:40:23.619Z,19.42
2023-05-04T00:42:25.222Z,17.73
2023-05-04T00:44:27.527Z,17.98
2023-05-04T00:46:29.329Z,21.23
2023-05-04T00:48:31.299Z,19.52
2023-05-04T00:50:32.955Z,18.52
2023-05-04T00:52:34.770Z,18.67
2023-05-04T00:54:36.403Z,19.83
2023-05-04T00:56:42.296Z,18.20
2023-05-04T00:58:43.986Z,17.75
2023-05-04T01:00:45.590Z,22.05
2023-05-04T01:02:47.286Z,21.35
2023-05-04T01:04:49.101Z,20.17
2023-05-04T01:07:27.681Z,21.27
2023-05-04T01:09:38.171Z,22.25
2023-05-04T01:11:49.800Z,22.65
2023-05-04T01:13:51.450Z,22.15
2023-05-04T01:15:53.212Z,21.10
2023-05-04T01:17:54.862Z,20.20
2023-05-04T01:19:56.549Z,21.10
2023-05-04T01:21:58.556Z,23.30
2023-05-04T01:24:00.302Z,20.73
2023-05-04T01:26:21.546Z,21.17
2023-05-04T01:28:45.961Z,23.42
2023-05-04T01:30:50.851Z,21.58
2023-05-04T01:32:53.107Z,21.95
2023-05-04T01:34:54.849Z,20.83
2023-05-04T01:36:56.892Z,21.77
2023-05-04T01:38:59.681Z,21.70
2023-05-04T01:41:01.227Z,20.48
2023-05-04T01:43:02.818Z,21.98
2023-05-04T01:45:04.791Z,21.73
2023-05-04T01:47:06.565Z,20.05
2023-05-04T01:49:08.185Z,22.10
2023-05-04T01:51:09.773Z,20.83
2023-05-04T01:53:11.422Z,20.45
2023-05-04T01:55:13.038Z,20.65
2023-05-04T01:57:14.634Z,21.00
2023-05-04T01:59:16.246Z,22.52
2023-05-04T02:01:17.871Z,24.88
2023-05-04T02:03:19.564Z,24.88
2023-05-04T02:05:21.165Z,20.65
2023-05-04T02:07:22.782Z,20.92
2023-05-04T02:09:24.374Z,20.45
2023-05-04T02:11:26.111Z,22.27
2023-05-04T02:13:27.747Z,18.95
2023-05-04T02:15:29.420Z,20.60
2023-05-04T02:17:31.564Z,19.05
2023-05-04T02:19:33.206Z,17.65
2023-05-04T02:21:35.343Z,22.67
2023-05-04T02:23:36.965Z,18.85
2023-05-04T02:25:42.021Z,18.27
2023-05-04T02:27:43.576Z,18.08
2023-05-04T02:29:45.224Z,20.23
2023-05-04T02:31:46.927Z,16.88
2023-05-04T02:33:50.770Z,18.52
2023-05-04T02:37:53.781Z,17.52
2023-05-04T02:39:55.326Z,17.45
2023-05-04T02:41:57.029Z,18.88
2023-05-04T02:43:58.608Z,18.35
2023-05-04T02:46:00.412Z,18.13
2023-05-04T02:48:02.470Z,16.92
2023-05-04T02:50:04.701Z,16.00
2023-05-04T02:52:06.594Z,16.50
2023-05-04T02:54:08.501Z,17.40
2023-05-04T02:56:10.075Z,14.02
2023-05-04T02:58:11.589Z,14.27
2023-05-04T03:00:13.872Z,15.65
2023-05-04T03:02:15.475Z,14.15
2023-05-04T03:04:17.094Z,16.85
2023-05-04T03:06:18.770Z,12.18
2023-05-04T03:08:20.360Z,12.85
2023-05-04T03:10:22.012Z,15.32
2023-05-04T03:12:24.671Z,12.90
2023-05-04T03:14:26.441Z,14.38
2023-05-04T03:16:28.083Z,11.15
2023-05-04T03:20:49.057Z,14.02
2023-05-04T03:22:51.254Z,14.25
2023-05-04T03:24:52.845Z,12.02
2023-05-04T03:26:54.808Z,11.60
2023-05-04T03:28:56.574Z,12.75
2023-05-04T03:30:58.120Z,11.18
2023-05-04T03:33:00.037Z,11.10
2023-05-04T03:35:03.911Z,14.18
2023-05-04T03:37:05.722Z,12.63
2023-05-04T03:39:07.928Z,12.15
2023-05-04T03:41:10.761Z,9.70
2023-05-04T03:43:12.428Z,9.93
2023-05-04T03:45:14.031Z,11.65
2023-05-04T03:47:15.778Z,9.43
2023-05-04T03:49:17.351Z,9.75
2023-05-04T03:51:19.048Z,10.60
2023-05-04T03:53:20.676Z,12.18
2023-05-04T03:55:22.386Z,14.20
2023-05-04T03:57:24.341Z,10.88
2023-05-04T03:59:25.978Z,10.63
2023-05-04T04:01:27.607Z,11.27
2023-05-04T04:03:29.707Z,11.70
2023-05-04T04:05:31.363Z,12.70
2023-05-04T04:07:33.300Z,11.75
2023-05-04T04:09:34.915Z,13.20
2023-05-04T04:11:36.497Z,12.27
2023-05-04T04:13:38.140Z,11.13
2023-05-04T04:15:40.946Z,11.40
2023-05-04T04:19:45.295Z,12.73
2023-05-04T04:21:46.835Z,11.60
2023-05-04T04:23:48.445Z,12.10
2023-05-04T04:25:50.026Z,11.00
2023-05-04T04:27:51.692Z,11.38
2023-05-04T04:29:53.242Z,11.82
2023-05-04T04:31:55.062Z,14.35
2023-05-04T04:33:56.776Z,13.45
2023-05-04T04:35:58.435Z,13.57
2023-05-04T04:38:02.221Z,12.98
2023-05-04T04:40:07.491Z,11.40
2023-05-04T04:42:09.126Z,11.70
2023-05-04T04:44:11.682Z,12.48
2023-05-04T04:46:13.416Z,13.85
2023-05-04T04:48:15.369Z,14.98
2023-05-04T04:50:17.600Z,11.23
2023-05-04T04:52:19.157Z,11.98
2023-05-04T04:54:20.781Z,13.40
2023-05-04T04:56:22.595Z,12.85
2023-05-04T04:58:24.197Z,14.00
2023-05-04T05:00:26.290Z,13.93
2023-05-04T05:02:28.570Z,12.60
2023-05-04T05:04:30.326Z,13.68
2023-05-04T05:06:31.937Z,14.25
2023-05-04T05:08:33.948Z,14.75
2023-05-04T05:10:36.103Z,14.77
2023-05-04T05:12:38.136Z,14.05
2023-05-04T05:14:39.753Z,13.60
2023-05-04T05:16:41.377Z,16.90
2023-05-04T05:18:43.109Z,13.68
2023-05-04T05:20:44.702Z,14.15
2023-05-04T05:22:46.382Z,16.23
2023-05-04T05:24:48.005Z,14.48
2023-05-04T05:26:49.553Z,15.02
2023-05-04T05:28:51.555Z,13.55
2023-05-04T05:30:53.227Z,14.65
2023-05-04T05:32:54.929Z,16.15
2023-05-04T05:34:56.844Z,14.68
2023-05-04T05:36:58.432Z,15.88
2023-05-04T05:39:00.133Z,13.23
2023-05-04T05:41:01.910Z,14.70
2023-05-04T05:43:05.597Z,17.83
2023-05-04T05:45:08.104Z,13.60
2023-05-04T05:47:09.707Z,15.02
2023-05-04T05:49:11.509Z,17.38
2023-05-04T05:51:13.144Z,16.10
2023-05-04T05:53:14.741Z,12.38
2023-05-04T05:55:16.303Z,14.02
2023-05-04T05:57:17.999Z,13.13
2023-05-04T05:59:19.587Z,12.43
2023-05-04T06:01:21.174Z,14.10
2023-05-04T06:03:23.085Z,13.30
2023-05-04T06:05:24.763Z,15.82
2023-05-04T06:07:26.545Z,15.98
2023-05-04T06:09:28.168Z,17.35
2023-05-04T06:11:29.814Z,10.93
2023-05-04T06:13:31.419Z,11.35
2023-05-04T06:15:33.093Z,16.80
2023-05-04T06:17:34.924Z,13.43
2023-05-04T06:19:39.469Z,12.55
2023-05-04T06:21:41.163Z,10.00
2023-05-04T06:23:42.765Z,11.48
2023-05-04T06:25:44.389Z,10.98
2023-05-04T06:27:46.086Z,10.05
2023-05-04T06:29:47.721Z,12.95
2023-05-04T06:31:49.508Z,12.90
2023-05-04T06:33:51.268Z,10.13
2023-05-04T06:35:53.458Z,9.27
2023-05-04T06:37:54.995Z,8.10
2023-05-04T06:39:56.662Z,11.48
2023-05-04T06:41:58.435Z,12.98
2023-05-04T06:44:00.585Z,10.05
2023-05-04T06:46:05.634Z,7.88
2023-05-04T06:48:08.859Z,8.75
2023-05-04T06:50:11.865Z,8.55
2023-05-04T06:52:14.486Z,11.37
2023-05-04T06:54:16.120Z,6.93
2023-05-04T06:56:17.652Z,8.40
2023-05-04T06:58:20.137Z,8.27
2023-05-04T07:00:22.674Z,9.25
2023-05-04T07:02:24.424Z,8.18
2023-05-04T07:04:26.129Z,8.68
2023-05-04T07:06:28.698Z,8.45
2023-05-04T07:08:30.307Z,9.07
2023-05-04T07:10:32.786Z,7.35
2023-05-04T07:12:34.466Z,8.80
2023-05-04T07:14:36.164Z,11.18
2023-05-04T07:16:38.014Z,9.10
2023-05-04T07:18:40.651Z,7.90
2023-05-04T07:20:42.856Z,7.65
2023-05-04T07:22:44.519Z,8.05
2023-05-04T07:24:46.815Z,8.10
2023-05-04T07:26:48.409Z,10.40
2023-05-04T07:28:50.046Z,7.97
2023-05-04T07:30:51.579Z,8.32
2023-05-04T07:32:53.345Z,8.18
2023-05-04T07:34:55.010Z,8.32
2023-05-04T07:36:56.748Z,9.75
2023-05-04T07:38:58.278Z,8.63
2023-05-04T07:41:00.016Z,9.23
2023-05-04T07:43:01.635Z,8.95
2023-05-04T07:45:03.929Z,9.15
2023-05-04T07:47:05.756Z,7.70
2023-05-04T07:49:07.390Z,9.23
2023-05-04T07:51:13.671Z,10.45
2023-05-04T07:53:15.204Z,9.60
2023-05-04T07:55:16.831Z,7.95
2023-05-04T07:57:18.429Z,10.07
2023-05-04T07:59:20.399Z,10.88
2023-05-04T08:01:21.998Z,9.38
2023-05-04T08:03:23.758Z,10.90
2023-05-04T08:05:25.440Z,9.18
2023-05-04T08:07:27.044Z,8.85
2023-05-04T08:09:28.632Z,11.05
2023-05-04T08:11:30.364Z,12.00
2023-05-04T08:13:31.953Z,8.73
2023-05-04T08:15:33.729Z,11.57
2023-05-04T08:17:35.557Z,9.18
2023-05-04T08:19:37.185Z,11.82
2023-05-04T08:21:40.441Z,8.57
2023-05-04T08:23:42.333Z,9.68
2023-05-04T08:25:43.966Z,10.98
2023-05-04T08:27:45.971Z,9.93
2023-05-04T08:29:47.569Z,10.35
2023-05-04T08:31:49.533Z,11.32
2023-05-04T08:33:51.493Z,10.52
2023-05-04T08:35:53.121Z,10.40
2023-05-04T08:37:55.064Z,9.63
2023-05-04T08:39:56.901Z,10.00
2023-05-04T08:41:58.581Z,9.50
2023-05-04T08:44:00.221Z,32.72
2023-05-04T08:46:01.998Z,71.72
2023-05-04T08:48:04.097Z,11.20
2023-05-04T08:50:07.554Z,13.45
2023-05-04T08:52:10.250Z,9.25
2023-05-04T08:54:12.192Z,8.52
2023-05-04T08:56:14.515Z,10.43
2023-05-04T08:58:17.884Z,12.85
2023-05-04T09:00:20.271Z,11.27
2023-05-04T09:02:23.638Z,13.27
2023-05-04T09:04:29.282Z,9.35
2023-05-04T09:06:31.765Z,9.98
2023-05-04T09:08:33.430Z,8.40
2023-05-04T09:10:35.023Z,9.02
2023-05-04T09:12:38.021Z,11.75
2023-05-04T09:14:41.404Z,8.18
2023-05-04T09:16:43.050Z,7.57
2023-05-04T09:18:45.126Z,7.22
2023-05-04T09:20:48.006Z,11.27
2023-05-04T09:23:01.008Z,10.30
2023-05-04T09:25:13.059Z,10.10
2023-05-04T09:27:18.636Z,9.20
2023-05-04T09:29:22.148Z,10.88
2023-05-04T09:31:24.177Z,11.13
2023-05-04T09:33:27.356Z,8.25
2023-05-04T09:35:33.541Z,8.73
2023-05-04T09:37:44.181Z,9.15
2023-05-04T09:39:57.580Z,12.18
2023-05-04T09:41:59.169Z,8.50
2023-05-04T09:44:00.769Z,12.27
2023-05-04T09:46:02.932Z,12.20
2023-05-04T09:48:16.600Z,11.52
2023-05-04T09:50:22.519Z,10.63
2023-05-04T09:52:24.345Z,14.27
2023-05-04T09:54:26.750Z,13.40
2023-05-04T09:56:42.127Z,12.65
2023-05-04T09:58:44.638Z,12.80
2023-05-04T10:00:46.661Z,16.75
2023-05-04T10:02:50.255Z,14.50
2023-05-04T10:04:52.302Z,12.82
2023-05-04T10:06:55.071Z,12.18
2023-05-04T10:08:59.169Z,13.07
2023-05-04T10:11:01.036Z,13.60
2023-05-04T10:13:02.634Z,13.38
2023-05-04T10:15:07.904Z,12.50
2023-05-04T10:17:18.442Z,15.18
2023-05-04T10:19:41.026Z,16.10
2023-05-04T10:21:55.813Z,13.25
2023-05-04T10:24:23.314Z,13.85
2023-05-04T10:26:33.656Z,15.93
2023-05-04T10:28:41.087Z,14.68
2023-05-04T10:30:43.016Z,12.68
2023-05-04T10:32:44.887Z,13.90
2023-05-04T10:34:46.863Z,12.95
2023-05-04T10:36:48.792Z,13.35
2023-05-04T10:38:50.380Z,14.13
2023-05-04T10:40:53.802Z,12.88
2023-05-04T10:42:55.404Z,12.85
2023-05-04T10:44:57.583Z,15.65
2023-05-04T10:47:04.289Z,16.45
2023-05-04T10:49:16.208Z,15.80
2023-05-04T10:51:26.570Z,16.25
2023-05-04T10:55:43.604Z,15.00
2023-05-04T10:57:51.116Z,15.50
2023-05-04T10:59:59.892Z,12.93
2023-05-04T11:02:02.397Z,16.73
2023-05-04T11:04:04.077Z,23.88
2023-05-04T11:06:19.547Z,15.30
2023-05-04T11:08:24.521Z,14.73
2023-05-04T11:10:26.635Z,17.20
2023-05-04T11:12:28.554Z,15.60
2023-05-04T11:14:30.392Z,17.60
2023-05-04T11:16:31.995Z,17.85
2023-05-04T11:18:35.328Z,16.38
2023-05-04T11:20:36.996Z,22.50
2023-05-04T11:22:38.620Z,20.67
2023-05-04T11:24:45.983Z,19.02
2023-05-04T11:26:49.425Z,15.63
2023-05-04T11:28:51.474Z,16.60
2023-05-04T11:30:56.010Z,17.50
2023-05-04T11:33:00.353Z,16.30
2023-05-04T11:35:04.408Z,16.38
2023-05-04T11:37:06.566Z,19.85
2023-05-04T11:39:08.371Z,17.40
2023-05-04T11:41:10.084Z,18.10
2023-05-04T11:43:12.784Z,19.80
2023-05-04T11:45:18.599Z,18.83
2023-05-04T11:47:20.708Z,19.35
2023-05-04T11:49:22.513Z,18.13
2023-05-04T11:51:29.993Z,20.40
2023-05-04T11:53:38.761Z,18.65
2023-05-04T11:55:41.341Z,19.10
2023-05-04T11:57:42.948Z,20.17
2023-05-04T11:59:50.849Z,21.70
2023-05-04T12:01:52.442Z,19.02
2023-05-04T12:03:55.000Z,19.00
2023-05-04T12:05:57.413Z,20.67
2023-05-04T12:07:59.400Z,17.67
2023-05-04T12:10:01.049Z,17.48
2023-05-04T12:12:02.643Z,19.63
2023-05-04T12:14:11.949Z,18.67
2023-05-04T12:16:15.478Z,22.05
2023-05-04T12:18:29.360Z,17.48
2023-05-04T12:20:31.301Z,18.90
2023-05-04T12:22:33.639Z,17.73
2023-05-04T12:24:35.643Z,18.88
2023-05-04T12:26:37.773Z,19.23
2023-05-04T12:28:41.085Z,20.45
2023-05-04T12:30:42.688Z,22.52
2023-05-04T12:32:44.650Z,23.08
2023-05-04T12:34:46.304Z,20.48
2023-05-04T12:36:52.049Z,17.88
2023-05-04T12:38:53.848Z,22.02
2023-05-04T12:40:58.861Z,17.95
2023-05-04T12:43:00.476Z,21.08
2023-05-04T12:45:02.067Z,19.95
2023-05-04T12:47:04.111Z,18.73
2023-05-04T12:49:06.385Z,17.88
2023-05-04T12:51:07.974Z,18.20
2023-05-04T12:53:09.648Z,19.00
2023-05-04T12:55:11.251Z,24.48
2023-05-04T12:57:13.020Z,18.00
2023-05-04T12:59:14.582Z,16.95
2023-05-04T13:01:16.938Z,20.63
2023-05-04T13:03:18.740Z,18.33
2023-05-04T13:05:22.795Z,22.35
2023-05-04T13:07:24.366Z,17.35
2023-05-04T13:09:25.975Z,21.98
2023-05-04T13:11:27.572Z,22.25
2023-05-04T13:13:29.899Z,21.98
2023-05-04T13:15:33.069Z,21.33
2023-05-04T13:17:34.852Z,9.88
2023-05-04T13:19:36.909Z,10.38
2023-05-04T13:21:38.478Z,9.18
2023-05-04T13:23:40.131Z,8.98
2023-05-04T13:25:42.226Z,7.85
2023-05-04T13:27:43.802Z,11.90
2023-05-04T13:29:45.391Z,12.57
2023-05-04T13:31:47.176Z,10.98
2023-05-04T13:33:50.550Z,12.35
2023-05-04T13:35:52.240Z,10.73
2023-05-04T13:37:53.990Z,9.43
2023-05-04T13:39:56.400Z,8.75
2023-05-04T13:41:57.963Z,13.10
2023-05-04T13:43:59.507Z,9.10
2023-05-04T13:46:04.472Z,8.25
2023-05-04T13:48:06.174Z,13.35
2023-05-04T13:50:08.374Z,12.75
2023-05-04T13:52:10.298Z,13.90
2023-05-04T13:54:11.903Z,12.35
2023-05-04T13:56:13.467Z,9.07
2023-05-04T13:58:15.084Z,14.48
2023-05-04T14:00:17.949Z,10.48
2023-05-04T14:02:20.193Z,11.68
2023-05-04T14:04:22.716Z,14.80
2023-05-04T14:06:26.062Z,11.90
2023-05-04T14:08:27.632Z,9.63
2023-05-04T14:10:29.204Z,11.45
2023-05-04T14:12:30.822Z,12.57
2023-05-04T14:14:32.497Z,9.77
2023-05-04T14:16:36.143Z,9.98
2023-05-04T14:18:39.007Z,9.75
2023-05-04T14:20:40.681Z,10.90
2023-05-04T14:22:42.352Z,9.38
2023-05-04T14:24:43.962Z,8.98
2023-05-04T14:26:45.907Z,10.35
2023-05-04T14:28:48.319Z,12.57
2023-05-04T14:30:50.486Z,9.10
2023-05-04T14:32:58.290Z,10.85
2023-05-04T14:35:06.596Z,10.32
2023-05-04T14:37:08.476Z,14.07
2023-05-04T14:39:10.038Z,15.30
2023-05-04T14:41:13.704Z,8.95
2023-05-04T14:43:15.266Z,10.85
2023-05-04T14:45:17.338Z,10.65
2023-05-04T14:47:19.897Z,9.50
2023-05-04T14:49:35.808Z,9.50
2023-05-04T14:51:39.246Z,10.20
2023-05-04T14:53:41.130Z,10.48
2023-05-04T14:55:42.790Z,9.13
2023-05-04T14:57:44.334Z,7.72
2023-05-04T14:59:46.155Z,9.25
2023-05-04T15:01:47.833Z,7.93
2023-05-04T15:03:49.856Z,7.80
2023-05-04T15:05:51.553Z,6.03
2023-05-04T15:07:53.119Z,6.13
2023-05-04T15:09:54.732Z,8.55
2023-05-04T15:11:56.614Z,5.38
2023-05-04T15:13:59.071Z,5.10
2023-05-04T15:16:00.781Z,6.03
2023-05-04T15:18:02.435Z,7.95
2023-05-04T15:20:05.449Z,6.20
2023-05-04T15:22:07.593Z,7.55
2023-05-04T15:24:09.192Z,7.10
2023-05-04T15:26:10.777Z,8.15
2023-05-04T15:28:12.569Z,6.78
2023-05-04T15:30:14.479Z,5.07
2023-05-04T15:32:16.031Z,7.78
2023-05-04T15:34:18.606Z,5.70
2023-05-04T15:36:20.360Z,4.90
2023-05-04T15:38:22.085Z,8.07
2023-05-04T15:40:23.902Z,5.63
2023-05-04T15:42:25.602Z,6.88
2023-05-04T15:44:28.068Z,4.55
2023-05-04T15:46:29.716Z,9.20
2023-05-04T15:48:31.356Z,4.38
2023-05-04T15:50:33.414Z,5.05
2023-05-04T15:52:35.084Z,5.10
2023-05-04T15:54:36.753Z,5.55
2023-05-04T15:56:38.372Z,4.82
2023-05-04T15:58:40.011Z,6.93
2023-05-04T16:00:41.673Z,4.88
2023-05-04T16:02:43.326Z,4.85
2023-05-04T16:04:45.053Z,3.60
2023-05-04T16:06:47.829Z,5.43
2023-05-04T16:08:49.574Z,4.15
2023-05-04T16:10:53.432Z,5.22
2023-05-04T16:12:55.312Z,3.80
2023-05-04T16:14:56.960Z,4.93
2023-05-04T16:17:02.094Z,5.43
2023-05-04T16:19:03.765Z,4.60
2023-05-04T16:21:05.372Z,4.40
2023-05-04T16:23:07.095Z,6.82
2023-05-04T16:25:11.025Z,7.00
2023-05-04T16:27:13.032Z,4.80
2023-05-04T16:29:15.450Z,5.70
2023-05-04T16:31:17.121Z,7.90
2023-05-04T16:33:19.717Z,4.03
2023-05-04T16:35:21.651Z,3.97
2023-05-04T16:37:23.255Z,4.97
2023-05-04T16:39:31.494Z,4.50
2023-05-04T16:41:33.387Z,2.92
2023-05-04T16:43:34.984Z,3.03
2023-05-04T16:45:37.145Z,6.63
2023-05-04T16:47:39.324Z,2.45
2023-05-04T16:49:41.174Z,5.30
2023-05-04T16:51:43.497Z,4.63
2023-05-04T16:53:45.105Z,5.22
2023-05-04T16:55:46.943Z,3.72
2023-05-04T16:57:48.600Z,7.60
2023-05-04T16:59:50.237Z,7.55
2023-05-04T17:01:51.984Z,4.45
2023-05-04T17:03:53.856Z,3.70
2023-05-04T17:05:55.612Z,6.43
2023-05-04T17:07:57.217Z,6.05
2023-05-04T17:09:58.949Z,6.20
2023-05-04T17:12:01.127Z,4.75
2023-05-04T17:14:03.583Z,3.35
2023-05-04T17:16:06.251Z,6.50
2023-05-04T17:18:08.171Z,2.90
2023-05-04T17:20:14.939Z,3.35
2023-05-04T17:22:17.491Z,3.88
2023-05-04T17:24:19.330Z,4.15
2023-05-04T17:26:21.227Z,6.07
2023-05-04T17:28:23.066Z,5.28
2023-05-04T17:30:24.754Z,8.07
2023-05-04T17:32:26.741Z,4.70
2023-05-04T17:34:28.476Z,5.93
2023-05-04T17:36:30.112Z,4.57
2023-05-04T17:38:32.611Z,7.75
2023-05-04T17:40:34.565Z,6.38
2023-05-04T17:42:36.173Z,4.75
2023-05-04T17:44:37.753Z,7.22
2023-05-04T17:46:40.260Z,6.97
2023-05-04T17:48:42.090Z,7.97
2023-05-04T17:50:45.522Z,5.55
2023-05-04T17:52:51.787Z,4.70
2023-05-04T17:54:53.850Z,6.53
2023-05-04T17:56:55.438Z,5.45
2023-05-04T17:58:57.016Z,3.85
2023-05-04T18:00:58.635Z,5.80
2023-05-04T18:03:00.242Z,7.93
2023-05-04T18:05:02.508Z,5.93
2023-05-04T18:07:04.149Z,5.32
2023-05-04T18:09:05.762Z,5.80
2023-05-04T18:11:07.323Z,5.22
2023-05-04T18:13:08.928Z,5.45
2023-05-04T18:15:10.672Z,4.97
2023-05-04T18:17:12.269Z,4.32
2023-05-04T18:19:13.889Z,4.95
2023-05-04T18:21:15.528Z,5.63
2023-05-04T18:23:17.075Z,4.57
2023-05-04T18:25:18.663Z,6.18
2023-05-04T18:27:20.306Z,5.15
2023-05-04T18:29:21.880Z,7.95
2023-05-04T18:31:23.525Z,5.18
2023-05-04T18:33:25.131Z,6.75
2023-05-04T18:35:26.961Z,6.90
2023-05-04T18:37:31.728Z,7.60
2023-05-04T18:39:33.312Z,5.18
2023-05-04T18:41:35.080Z,7.93
2023-05-04T18:43:36.710Z,6.95
2023-05-04T18:45:38.340Z,6.93
2023-05-04T18:47:40.027Z,6.65
2023-05-04T18:49:41.994Z,6.30
2023-05-04T18:51:43.624Z,6.93
2023-05-04T18:53:47.007Z,7.50
2023-05-04T18:56:05.806Z,8.77
2023-05-04T18:58:07.447Z,8.82
2023-05-04T19:00:09.821Z,7.53
2023-05-04T19:02:12.650Z,7.20
2023-05-04T19:04:14.259Z,6.90
2023-05-04T19:06:15.886Z,6.95
2023-05-04T19:08:18.890Z,6.95
2023-05-04T19:10:20.477Z,9.95
2023-05-04T19:12:22.173Z,8.02
2023-05-04T19:14:25.342Z,8.77
2023-05-04T19:16:27.265Z,11.93
2023-05-04T19:18:28.902Z,8.48
2023-05-04T19:20:30.499Z,9.27
2023-05-04T19:22:32.097Z,9.45
2023-05-04T19:24:36.241Z,8.70
2023-05-04T19:26:39.066Z,13.40
2023-05-04T19:28:40.672Z,9.57
2023-05-04T19:30:42.439Z,10.75
2023-05-04T19:32:44.096Z,11.63
2023-05-04T19:34:45.775Z,11.52
2023-05-04T19:36:47.386Z,9.57
2023-05-04T19:38:49.042Z,10.05
2023-05-04T19:40:50.851Z,11.70
2023-05-04T19:42:52.573Z,12.13
2023-05-04T19:44:54.187Z,12.05
2023-05-04T19:46:56.142Z,12.27
2023-05-04T19:48:57.948Z,11.82
2023-05-04T19:50:59.607Z,13.35
2023-05-04T19:53:01.179Z,13.07
2023-05-04T19:55:03.166Z,10.27
2023-05-04T19:57:05.087Z,9.48
2023-05-04T19:59:06.728Z,11.68
2023-05-04T20:01:08.564Z,11.27
2023-05-04T20:03:10.539Z,10.82
2023-05-04T20:05:12.789Z,10.57
2023-05-04T20:07:14.404Z,11.48
2023-05-04T20:09:16.148Z,11.25
2023-05-04T20:11:17.877Z,9.25
2023-05-04T20:13:19.616Z,11.70
2023-05-04T20:15:21.652Z,13.25
2023-05-04T20:17:23.570Z,11.45
2023-05-04T20:19:25.150Z,9.32
2023-05-04T20:21:27.186Z,8.80
2023-05-04T20:23:28.811Z,10.07
2023-05-04T20:25:30.422Z,8.25
2023-05-04T20:27:31.995Z,9.00
2023-05-04T20:29:33.901Z,8.75
2023-05-04T20:31:35.787Z,9.57
2023-05-04T20:33:37.495Z,9.02
2023-05-04T20:35:42.025Z,10.18
2023-05-04T20:37:43.607Z,8.85
2023-05-04T20:39:45.421Z,8.80
2023-05-04T20:41:47.770Z,9.07
2023-05-04T20:43:50.213Z,8.15
2023-05-04T20:45:53.445Z,7.28
2023-05-04T20:47:55.131Z,9.95
2023-05-04T20:49:56.781Z,7.82
2023-05-04T20:51:58.352Z,9.23
2023-05-04T20:53:59.997Z,9.30
2023-05-04T20:56:01.985Z,7.75
2023-05-04T20:58:03.560Z,7.57
2023-05-04T21:00:06.702Z,8.18
2023-05-04T21:02:08.847Z,9.70
2023-05-04T21:04:10.623Z,7.40
2023-05-04T21:06:12.352Z,8.75
2023-05-04T21:08:14.056Z,8.15
2023-05-04T21:10:15.681Z,11.45
2023-05-04T21:12:17.479Z,10.95
2023-05-04T21:14:19.037Z,10.80
2023-05-04T21:16:20.706Z,8.70
2023-05-04T21:18:22.644Z,8.20
2023-05-04T21:20:24.251Z,9.82
2023-05-04T21:22:27.364Z,8.07
2023-05-04T21:24:29.054Z,8.73
2023-05-04T21:26:30.685Z,8.90
2023-05-04T21:28:32.507Z,7.80
2023-05-04T21:30:34.124Z,9.95
2023-05-04T21:32:35.844Z,9.60
2023-05-04T21:34:37.453Z,8.82
2023-05-04T21:36:40.353Z,7.60
2023-05-04T21:38:42.185Z,11.00
2023-05-04T21:40:43.714Z,10.48
2023-05-04T21:42:45.315Z,9.48
2023-05-04T21:44:46.882Z,9.05
2023-05-04T21:46:48.541Z,10.15
2023-05-04T21:48:51.721Z,10.95
2023-05-04T21:50:53.319Z,8.60
2023-05-04T21:52:54.902Z,12.38
2023-05-04T21:54:56.507Z,10.68
2023-05-04T21:56:58.139Z,13.77
2023-05-04T21:58:59.734Z,13.98
2023-05-04T22:01:01.360Z,10.68
2023-05-04T22:03:03.019Z,12.98
2023-05-04T22:05:05.145Z,11.75
2023-05-04T22:07:06.701Z,12.80
2023-05-04T22:09:09.028Z,10.90
2023-05-04T22:11:10.735Z,12.40
2023-05-04T22:13:12.352Z,8.40
2023-05-04T22:15:14.218Z,10.82
2023-05-04T22:17:15.864Z,10.68
2023-05-04T22:19:17.510Z,9.77
2023-05-04T22:21:19.091Z,12.07
2023-05-04T22:23:20.714Z,8.85
2023-05-04T22:25:22.322Z,10.73
2023-05-04T22:27:23.889Z,11.27
2023-05-04T22:29:25.564Z,7.97
2023-05-04T22:31:27.306Z,7.65
2023-05-04T22:33:28.979Z,7.55
2023-05-04T22:35:31.719Z,10.98
2023-05-04T22:37:33.302Z,8.63
2023-05-04T22:39:34.884Z,9.68
2023-05-04T22:41:36.890Z,7.55
2023-05-04T22:43:38.497Z,8.85
2023-05-04T22:45:40.833Z,9.70
2023-05-04T22:47:42.478Z,8.55
2023-05-04T22:49:44.182Z,10.00
2023-05-04T22:51:45.830Z,13.25
2023-05-04T22:53:47.443Z,9.10
2023-05-04T22:55:48.999Z,9.75
2023-05-04T22:57:50.689Z,9.20
2023-05-04T22:59:52.273Z,9.85
2023-05-04T23:01:53.893Z,9.68
2023-05-04T23:03:56.057Z,10.77
2023-05-04T23:05:59.978Z,10.05
2023-05-04T23:10:03.545Z,9.75
2023-05-04T23:12:05.369Z,9.00
2023-05-04T23:14:07.211Z,7.85
2023-05-04T23:16:08.851Z,11.45
2023-05-04T23:18:10.466Z,8.77
2023-05-04T23:20:13.376Z,10.40
2023-05-04T23:22:14.994Z,9.57
2023-05-04T23:24:16.542Z,9.02
2023-05-04T23:26:18.363Z,8.63
2023-05-04T23:28:19.998Z,9.43
2023-05-04T23:30:21.665Z,8.23
2023-05-04T23:32:23.464Z,9.38
2023-05-04T23:34:25.084Z,7.20
2023-05-04T23:36:27.672Z,7.57
2023-05-04T23:38:29.313Z,9.13
2023-05-04T23:40:30.857Z,8.65
2023-05-04T23:42:32.662Z,7.97
2023-05-04T23:44:34.317Z,8.30
2023-05-04T23:46:35.922Z,10.77
2023-05-04T23:48:37.484Z,9.77
2023-05-04T23:50:39.119Z,8.10
2023-05-04T23:52:40.721Z,9.30
2023-05-04T23:54:42.309Z,9.10
2023-05-04T23:56:43.976Z,9.38
2023-05-04T23:58:45.618Z,7.68
